Time;durP1;ratioP1;P1;durP2;ratioP2;P2;SDS_P1;SDS_P2;PMS_P1;PMS_P2;Temp;Humidity;BMP_temperature;BMP_pressure;BME280_temperature;BME280_humidity;BME280_pressure;Samples;Min_cycle;Max_cycle;Signal;HPM_P1;HPM_P2
2021/03/13 00:00:47;;;;;;;;;;;4.20;99.90;;;;;;5109091;28;19912;-78
2021/03/13 00:03:12;;;;;;;;;;;4.30;99.90;;;;;;5109395;28;19919;-77
2021/03/13 00:05:39;;;;;;;;;;;4.30;99.90;;;;;;5110141;28;19961;-77
2021/03/13 00:08:05;;;;;;;;;;;4.30;99.90;;;;;;5110694;28;19908;-77
2021/03/13 00:10:31;;;;;;;;;;;4.40;99.90;;;;;;5110809;28;19961;-77
2021/03/13 00:12:57;;;;;;;;;;;4.40;99.90;;;;;;5110929;28;19912;-77
2021/03/13 00:15:23;;;;;;;;;;;4.40;99.90;;;;;;5111050;28;20151;-77
2021/03/13 00:17:52;;;;;;;;;;;4.40;99.90;;;;;;5112018;28;20371;-77
2021/03/13 00:20:19;;;;;;;;;;;4.40;99.90;;;;;;5107306;28;19909;-77
2021/03/13 00:22:45;;;;;;;;;;;4.40;99.90;;;;;;5104402;28;19931;-77
2021/03/13 00:25:12;;;;;;;;;;;4.50;99.90;;;;;;5112683;28;19912;-77
2021/03/13 00:27:47;;;;;;;;;;;4.50;99.90;;;;;;5110574;28;19953;-77
2021/03/13 00:30:13;;;;;;;;;;;4.60;99.90;;;;;;5112596;28;19908;-77
2021/03/13 00:32:38;;;;;;;;;;;4.60;99.90;;;;;;5112410;28;19981;-76
2021/03/13 00:35:04;;;;;;;;;;;4.70;99.90;;;;;;5087767;28;19939;-76
2021/03/13 00:37:29;;;;;;;;;;;4.70;99.90;;;;;;5091359;28;20281;-76
2021/03/13 00:39:55;;;;;;;;;;;4.80;99.90;;;;;;5091927;28;20564;-76
2021/03/13 00:42:20;;;;;;;;;;;4.80;99.90;;;;;;5092269;28;19908;-77
2021/03/13 00:44:46;;;;;;;;;;;4.90;99.90;;;;;;5092424;28;19915;-77
2021/03/13 00:47:11;;;;;;;;;;;5.00;99.90;;;;;;5092231;28;19916;-76
2021/03/13 00:49:37;;;;;;;;;;;5.00;99.90;;;;;;5092162;28;19962;-77
2021/03/13 00:52:03;;;;;;;;;;;4.90;99.90;;;;;;5088664;28;20015;-77
2021/03/13 00:54:28;;;;;;;;;;;4.90;99.90;;;;;;5093366;28;19908;-76
2021/03/13 00:56:54;;;;;;;;;;;4.90;99.90;;;;;;5093429;28;20508;-76
2021/03/13 00:59:19;;;;;;;;;;;4.80;99.90;;;;;;5092030;28;20375;-76
2021/03/13 01:01:45;;;;;;;;;;;4.80;99.90;;;;;;5088584;28;20324;-76
2021/03/13 01:04:10;;;;;;;;;;;4.80;99.90;;;;;;5088622;28;20361;-76
2021/03/13 01:06:36;;;;;;;;;;;4.80;99.90;;;;;;5093285;28;19909;-76
2021/03/13 01:09:03;;;;;;;;;;;4.70;99.90;;;;;;5093630;28;19915;-76
2021/03/13 01:11:28;;;;;;;;;;;4.70;99.90;;;;;;5093208;28;19908;-76
2021/03/13 01:13:54;;;;;;;;;;;4.60;99.90;;;;;;5097183;28;19912;-77
2021/03/13 01:16:19;;;;;;;;;;;4.50;99.90;;;;;;5095825;28;19912;-77
2021/03/13 01:18:45;;;;;;;;;;;4.50;99.90;;;;;;5096902;28;20368;-76
2021/03/13 01:21:10;;;;;;;;;;;4.40;99.90;;;;;;5092291;28;19908;-76
2021/03/13 01:23:36;;;;;;;;;;;4.40;99.90;;;;;;5095799;28;19915;-76
2021/03/13 01:26:01;;;;;;;;;;;4.40;99.90;;;;;;5096586;28;20357;-77
2021/03/13 01:28:27;;;;;;;;;;;4.40;99.90;;;;;;5096768;28;19915;-76
2021/03/13 01:30:52;;;;;;;;;;;4.40;99.90;;;;;;5096773;28;19961;-77
2021/03/13 01:33:18;;;;;;;;;;;4.40;99.90;;;;;;5097356;28;19934;-77
2021/03/13 01:35:43;;;;;;;;;;;4.30;99.90;;;;;;5097014;28;19924;-77
2021/03/13 01:38:09;;;;;;;;;;;4.30;99.90;;;;;;5097457;28;20276;-77
2021/03/13 01:40:34;;;;;;;;;;;4.30;99.90;;;;;;5095906;28;19919;-76
2021/03/13 01:43:00;;;;;;;;;;;4.30;99.90;;;;;;5097702;28;19969;-77
2021/03/13 01:45:25;;;;;;;;;;;4.20;99.90;;;;;;5098035;28;19915;-77
2021/03/13 01:47:51;;;;;;;;;;;4.20;99.90;;;;;;5096871;28;19908;-77
2021/03/13 01:50:17;;;;;;;;;;;4.10;99.90;;;;;;5092277;28;19916;-77
2021/03/13 01:52:43;;;;;;;;;;;4.10;99.90;;;;;;5096855;28;19912;-77
2021/03/13 01:55:10;;;;;;;;;;;4.10;99.90;;;;;;5096496;28;20276;-77
2021/03/13 01:57:35;;;;;;;;;;;4.10;99.90;;;;;;5096825;28;20094;-77
2021/03/13 02:00:02;;;;;;;;;;;4.10;99.90;;;;;;5095484;28;20003;-77
2021/03/13 02:02:27;;;;;;;;;;;4.10;99.90;;;;;;5095030;28;19908;-77
2021/03/13 02:04:53;;;;;;;;;;;4.00;99.90;;;;;;5096308;28;19912;-77
2021/03/13 02:07:23;;;;;;;;;;;4.00;99.90;;;;;;5094615;28;19923;-77
2021/03/13 02:10:02;;;;;;;;;;;4.00;99.90;;;;;;5096752;28;19916;-77
2021/03/13 02:12:36;;;;;;;;;;;4.00;99.90;;;;;;5096548;28;19916;-77
2021/03/13 02:15:05;;;;;;;;;;;3.90;99.90;;;;;;5097058;28;19908;-77
2021/03/13 02:17:51;;;;;;;;;;;3.90;99.90;;;;;;5096668;28;20003;-77
2021/03/13 02:20:28;;;;;;;;;;;4.00;99.90;;;;;;5086738;28;20062;-77
2021/03/13 02:22:55;;;;;;;;;;;3.90;99.90;;;;;;5095864;28;19915;-76
2021/03/13 02:25:21;;;;;;;;;;;3.90;99.90;;;;;;5094975;28;19914;-77
2021/03/13 02:27:59;;;;;;;;;;;3.90;99.90;;;;;;5095691;28;19908;-76
2021/03/13 02:30:26;;;;;;;;;;;4.00;99.90;;;;;;5095640;28;19915;-77
2021/03/13 02:33:03;;;;;;;;;;;4.00;99.90;;;;;;5095474;28;19919;-77
2021/03/13 02:35:31;;;;;;;;;;;4.00;99.90;;;;;;5078290;28;20384;-76
2021/03/13 02:38:01;;;;;;;;;;;4.10;99.90;;;;;;5091340;28;19908;-77
2021/03/13 02:40:28;;;;;;;;;;;4.10;99.90;;;;;;5097099;28;19915;-77
2021/03/13 02:42:55;;;;;;;;;;;4.20;99.90;;;;;;5097818;28;19995;-77
2021/03/13 02:45:22;;;;;;;;;;;4.20;99.90;;;;;;5097505;28;19952;-76
2021/03/13 02:47:49;;;;;;;;;;;4.20;99.90;;;;;;5096802;28;19908;-76
2021/03/13 02:50:15;;;;;;;;;;;4.30;99.90;;;;;;5091925;28;19954;-76
2021/03/13 02:52:41;;;;;;;;;;;4.30;99.90;;;;;;5095800;28;20330;-76
2021/03/13 02:55:07;;;;;;;;;;;4.40;99.90;;;;;;5098675;28;19926;-76
2021/03/13 02:57:33;;;;;;;;;;;4.40;99.90;;;;;;5097483;28;19909;-76
2021/03/13 02:59:59;;;;;;;;;;;4.40;99.90;;;;;;5091285;28;19938;-76
2021/03/13 03:02:25;;;;;;;;;;;4.40;99.90;;;;;;5082233;28;19913;-76
2021/03/13 03:04:52;;;;;;;;;;;4.40;99.90;;;;;;5098155;28;19908;-76
2021/03/13 03:07:22;;;;;;;;;;;4.40;99.90;;;;;;5098985;28;20400;-76
2021/03/13 03:09:49;;;;;;;;;;;4.50;99.90;;;;;;5096549;28;19912;-77
2021/03/13 03:12:15;;;;;;;;;;;4.50;99.90;;;;;;5097068;28;20371;-77
2021/03/13 03:14:41;;;;;;;;;;;4.60;99.90;;;;;;5092268;28;19912;-77
2021/03/13 03:17:07;;;;;;;;;;;4.60;99.90;;;;;;5096218;28;19908;-76
2021/03/13 03:19:34;;;;;;;;;;;4.70;99.90;;;;;;5094266;28;19915;-77
2021/03/13 03:21:59;;;;;;;;;;;4.80;99.90;;;;;;5089933;28;19912;-77
2021/03/13 03:24:25;;;;;;;;;;;4.80;99.90;;;;;;5095184;28;20518;-77
2021/03/13 03:26:51;;;;;;;;;;;4.80;99.90;;;;;;5095552;28;19912;-77
2021/03/13 03:29:18;;;;;;;;;;;4.90;99.90;;;;;;5096061;28;20319;-76
2021/03/13 03:31:43;;;;;;;;;;;4.90;99.90;;;;;;5094882;28;19912;-77
2021/03/13 03:34:09;;;;;;;;;;;5.00;99.90;;;;;;5095048;28;20011;-77
2021/03/13 03:36:34;;;;;;;;;;;5.00;99.90;;;;;;5093877;28;19919;-76
2021/03/13 03:39:00;;;;;;;;;;;5.00;99.90;;;;;;5093101;28;19956;-76
2021/03/13 03:41:28;;;;;;;;;;;5.00;99.90;;;;;;5092937;28;19927;-77
2021/03/13 03:43:55;;;;;;;;;;;5.10;99.90;;;;;;5093285;28;19962;-77
2021/03/13 03:46:21;;;;;;;;;;;5.00;99.90;;;;;;5093029;28;19908;-77
2021/03/13 03:48:47;;;;;;;;;;;5.10;99.90;;;;;;5093694;28;19908;-77
2021/03/13 03:51:13;;;;;;;;;;;5.10;99.90;;;;;;5089313;28;20361;-77
2021/03/13 03:53:44;;;;;;;;;;;5.10;99.90;;;;;;5092669;28;19912;-77
2021/03/13 03:56:10;;;;;;;;;;;5.20;99.90;;;;;;5092808;28;19979;-77
2021/03/13 03:58:41;;;;;;;;;;;5.20;99.90;;;;;;5094907;28;19915;-77
2021/03/13 04:01:07;;;;;;;;;;;5.30;99.90;;;;;;5092671;28;19908;-77
2021/03/13 04:03:33;;;;;;;;;;;5.30;99.90;;;;;;5093054;28;19908;-76
2021/03/13 04:05:59;;;;;;;;;;;5.30;99.90;;;;;;5092519;28;19946;-77
2021/03/13 04:08:26;;;;;;;;;;;5.40;99.90;;;;;;5092644;28;19916;-77
2021/03/13 04:10:52;;;;;;;;;;;5.40;99.90;;;;;;5092929;28;19909;-77
2021/03/13 04:13:20;;;;;;;;;;;5.50;99.90;;;;;;5094270;28;19965;-77
2021/03/13 04:15:46;;;;;;;;;;;5.50;99.90;;;;;;5094525;28;19915;-76
2021/03/13 04:18:12;;;;;;;;;;;5.50;99.90;;;;;;5093773;28;19908;-77
2021/03/13 04:20:38;;;;;;;;;;;5.50;99.90;;;;;;5087728;28;20269;-77
2021/03/13 04:23:04;;;;;;;;;;;5.50;99.90;;;;;;5091997;28;20000;-77
2021/03/13 04:25:30;;;;;;;;;;;5.50;99.90;;;;;;5093084;28;20346;-77
2021/03/13 04:27:56;;;;;;;;;;;5.60;99.90;;;;;;5091935;28;19959;-77
2021/03/13 04:30:22;;;;;;;;;;;5.60;99.90;;;;;;5093605;28;19908;-77
2021/03/13 04:32:50;;;;;;;;;;;5.60;99.90;;;;;;5092815;28;20350;-77
2021/03/13 04:35:16;;;;;;;;;;;5.60;99.90;;;;;;5086199;28;19916;-77
2021/03/13 04:37:42;;;;;;;;;;;5.70;99.90;;;;;;5085799;28;19908;-77
2021/03/13 04:40:09;;;;;;;;;;;5.70;99.90;;;;;;5093313;28;19908;-77
2021/03/13 04:42:36;;;;;;;;;;;5.70;99.90;;;;;;5092346;28;19909;-77
2021/03/13 04:45:01;;;;;;;;;;;5.80;99.90;;;;;;5093754;28;19912;-77
2021/03/13 04:47:27;;;;;;;;;;;5.70;99.90;;;;;;5090860;28;19908;-77
2021/03/13 04:49:53;;;;;;;;;;;5.80;99.90;;;;;;5092042;28;20077;-77
2021/03/13 04:52:18;;;;;;;;;;;5.80;99.90;;;;;;5090612;28;20002;-77
2021/03/13 04:54:44;;;;;;;;;;;5.80;99.90;;;;;;5093126;28;19908;-77
2021/03/13 04:57:10;;;;;;;;;;;5.80;99.90;;;;;;5093374;28;20039;-77
2021/03/13 04:59:36;;;;;;;;;;;5.80;99.90;;;;;;5091163;28;19961;-76
2021/03/13 05:02:02;;;;;;;;;;;5.80;99.90;;;;;;5075410;28;19913;-77
2021/03/13 05:04:28;;;;;;;;;;;5.80;99.90;;;;;;5091331;28;20434;-77
2021/03/13 05:06:53;;;;;;;;;;;5.90;99.90;;;;;;5092901;28;19912;-77
2021/03/13 05:09:19;;;;;;;;;;;5.80;99.90;;;;;;5092323;28;19915;-77
2021/03/13 05:11:44;;;;;;;;;;;5.80;99.90;;;;;;5092911;28;20439;-77
2021/03/13 05:14:10;;;;;;;;;;;5.90;99.90;;;;;;5093577;28;19971;-77
2021/03/13 05:16:35;;;;;;;;;;;5.90;99.90;;;;;;5093122;28;20328;-77
2021/03/13 05:19:01;;;;;;;;;;;5.90;99.90;;;;;;5092611;28;19977;-77
2021/03/13 05:21:26;;;;;;;;;;;5.90;99.90;;;;;;5087128;28;20065;-76
2021/03/13 05:23:52;;;;;;;;;;;5.90;99.90;;;;;;5093577;28;19908;-77
2021/03/13 05:26:17;;;;;;;;;;;6.00;99.90;;;;;;5093740;28;19915;-77
2021/03/13 05:28:43;;;;;;;;;;;6.00;99.90;;;;;;5092310;28;19919;-76
2021/03/13 05:31:08;;;;;;;;;;;6.10;99.90;;;;;;5092935;28;19908;-76
2021/03/13 05:33:34;;;;;;;;;;;6.00;99.90;;;;;;5094330;28;19919;-77
2021/03/13 05:35:59;;;;;;;;;;;6.10;99.90;;;;;;5092618;28;19942;-77
2021/03/13 05:38:25;;;;;;;;;;;6.10;99.90;;;;;;5095156;28;20307;-77
2021/03/13 05:40:50;;;;;;;;;;;6.10;99.90;;;;;;5094331;28;19953;-77
2021/03/13 05:43:16;;;;;;;;;;;6.10;99.90;;;;;;5093157;28;19908;-77
2021/03/13 05:45:42;;;;;;;;;;;6.10;99.90;;;;;;5094355;28;19908;-77
2021/03/13 05:48:08;;;;;;;;;;;6.10;99.90;;;;;;5092670;28;19999;-77
2021/03/13 05:50:34;;;;;;;;;;;6.10;99.90;;;;;;5087892;28;19922;-78
2021/03/13 05:53:01;;;;;;;;;;;6.10;99.90;;;;;;5092872;28;20292;-77
2021/03/13 05:55:27;;;;;;;;;;;6.10;99.90;;;;;;5092576;28;19981;-78
2021/03/13 05:57:53;;;;;;;;;;;6.20;99.90;;;;;;5092393;28;20119;-77
2021/03/13 06:00:19;;;;;;;;;;;6.20;99.90;;;;;;5098163;28;19908;-77
2021/03/13 06:02:45;;;;;;;;;;;6.30;99.90;;;;;;5098172;28;19915;-77
2021/03/13 06:05:11;;;;;;;;;;;6.30;99.90;;;;;;5096886;28;19919;-77
2021/03/13 06:07:37;;;;;;;;;;;6.30;99.90;;;;;;5096480;28;19908;-77
2021/03/13 06:10:03;;;;;;;;;;;6.30;99.90;;;;;;5096342;28;20006;-77
2021/03/13 06:12:28;;;;;;;;;;;6.40;99.90;;;;;;5097433;28;19966;-77
2021/03/13 06:14:54;;;;;;;;;;;6.40;99.90;;;;;;5096629;28;19916;-77
2021/03/13 06:17:22;;;;;;;;;;;6.40;99.90;;;;;;5095987;28;20030;-77
2021/03/13 06:19:58;;;;;;;;;;;6.40;99.90;;;;;;5096740;28;19908;-76
2021/03/13 06:22:32;;;;;;;;;;;6.50;99.90;;;;;;5094178;28;20368;-78
2021/03/13 06:25:24;;;;;;;;;;;6.50;99.90;;;;;;5095614;28;20357;-78
2021/03/13 06:27:59;;;;;;;;;;;6.60;99.90;;;;;;5094413;28;20382;-77
2021/03/13 06:30:27;;;;;;;;;;;6.60;99.90;;;;;;5097760;28;19915;-78
2021/03/13 06:32:52;;;;;;;;;;;6.60;99.90;;;;;;5095968;28;20007;-78
2021/03/13 06:35:25;;;;;;;;;;;6.60;99.90;;;;;;5086179;28;19948;-78
2021/03/13 06:37:52;;;;;;;;;;;6.70;99.90;;;;;;5095646;28;19909;-78
2021/03/13 06:40:27;;;;;;;;;;;6.70;99.90;;;;;;5097137;28;19912;-78
2021/03/13 06:42:54;;;;;;;;;;;6.70;99.90;;;;;;5096974;28;19912;-78
2021/03/13 06:45:19;;;;;;;;;;;6.70;99.90;;;;;;5096108;28;19912;-77
2021/03/13 06:47:45;;;;;;;;;;;6.70;99.90;;;;;;5095781;28;20426;-78
2021/03/13 06:50:11;;;;;;;;;;;6.80;99.90;;;;;;5091580;28;19913;-77
2021/03/13 06:52:37;;;;;;;;;;;6.90;99.90;;;;;;5096689;28;19919;-78
2021/03/13 06:55:02;;;;;;;;;;;6.90;99.90;;;;;;5096076;28;20094;-78
2021/03/13 06:57:28;;;;;;;;;;;7.00;99.90;;;;;;5095082;28;19963;-78
2021/03/13 06:59:57;;;;;;;;;;;7.10;99.90;;;;;;5091162;28;19920;-78
2021/03/13 07:02:22;;;;;;;;;;;7.10;99.90;;;;;;5092102;28;19909;-78
2021/03/13 07:04:48;;;;;;;;;;;7.10;99.90;;;;;;5096304;28;20045;-78
2021/03/13 07:07:25;;;;;;;;;;;7.20;99.90;;;;;;5095444;28;19918;-78
2021/03/13 07:09:52;;;;;;;;;;;7.20;99.90;;;;;;5094282;28;20048;-78
2021/03/13 07:12:31;;;;;;;;;;;7.20;99.90;;;;;;5095273;28;19935;-77
2021/03/13 07:15:12;;;;;;;;;;;7.20;99.90;;;;;;5095234;28;19934;-78
2021/03/13 07:17:59;;;;;;;;;;;7.30;99.90;;;;;;5095126;28;19978;-78
2021/03/13 07:20:29;;;;;;;;;;;7.40;99.90;;;;;;5090750;28;19909;-77
2021/03/13 07:22:59;;;;;;;;;;;7.50;99.90;;;;;;5094697;28;20258;-76
2021/03/13 07:25:26;;;;;;;;;;;7.60;99.90;;;;;;5094412;28;19908;-77
2021/03/13 07:27:56;;;;;;;;;;;7.70;99.90;;;;;;5093995;28;19956;-77
2021/03/13 07:30:22;;;;;;;;;;;7.90;99.90;;;;;;5095132;28;19908;-77
2021/03/13 07:32:55;;;;;;;;;;;8.10;99.90;;;;;;5095855;28;19934;-77
2021/03/13 07:35:21;;;;;;;;;;;8.10;99.90;;;;;;5096758;28;20368;-78
2021/03/13 07:37:50;;;;;;;;;;;8.10;99.90;;;;;;5094925;28;19908;-78
2021/03/13 07:40:16;;;;;;;;;;;8.00;99.90;;;;;;5096058;28;19931;-76
2021/03/13 07:42:46;;;;;;;;;;;8.00;99.90;;;;;;5096270;28;19959;-78
2021/03/13 07:45:12;;;;;;;;;;;8.00;99.90;;;;;;5096236;28;19908;-79
2021/03/13 07:47:39;;;;;;;;;;;8.00;99.90;;;;;;5095987;28;19915;-78
2021/03/13 07:50:06;;;;;;;;;;;8.00;99.90;;;;;;5093529;28;19915;-78
2021/03/13 07:52:31;;;;;;;;;;;8.00;99.90;;;;;;5093270;28;19912;-79
2021/03/13 07:54:57;;;;;;;;;;;8.00;99.90;;;;;;5095083;28;19908;-79
2021/03/13 07:57:23;;;;;;;;;;;8.00;99.90;;;;;;5096552;28;19934;-78
2021/03/13 07:59:49;;;;;;;;;;;7.90;99.90;;;;;;5096181;28;20281;-78
2021/03/13 08:02:30;;;;;;;;;;;7.90;99.90;;;;;;5096925;28;19961;-79
2021/03/13 08:04:58;;;;;;;;;;;7.90;99.90;;;;;;5096049;28;20197;-79
2021/03/13 08:07:28;;;;;;;;;;;8.00;99.90;;;;;;5093233;28;19954;-78
2021/03/13 08:09:55;;;;;;;;;;;8.20;99.90;;;;;;5095737;28;20311;-78
2021/03/13 08:12:40;;;;;;;;;;;8.40;99.90;;;;;;5097565;28;19912;-78
2021/03/13 08:15:13;;;;;;;;;;;8.60;99.90;;;;;;5095699;28;19908;-79
2021/03/13 08:17:39;;;;;;;;;;;8.80;99.90;;;;;;5096309;28;19912;-78
2021/03/13 08:20:09;;;;;;;;;;;9.00;99.90;;;;;;5092500;28;20373;-78
2021/03/13 08:22:34;;;;;;;;;;;9.30;99.90;;;;;;5093667;28;20376;-79
2021/03/13 08:25:00;;;;;;;;;;;9.60;99.90;;;;;;5094420;28;19974;-79
2021/03/13 08:27:38;;;;;;;;;;;9.70;99.90;;;;;;5094158;28;19908;-79
2021/03/13 08:30:12;;;;;;;;;;;9.60;99.90;;;;;;5094798;28;19963;-79
2021/03/13 08:33:02;;;;;;;;;;;9.70;99.90;;;;;;5094731;28;19919;-79
2021/03/13 08:35:34;;;;;;;;;;;10.00;99.70;;;;;;5084130;28;20357;-79
2021/03/13 08:37:59;;;;;;;;;;;10.10;98.80;;;;;;5081242;28;20280;-79
2021/03/13 08:40:26;;;;;;;;;;;10.10;98.00;;;;;;5093363;28;19908;-78
2021/03/13 08:42:51;;;;;;;;;;;10.40;99.20;;;;;;5095440;28;19908;-80
2021/03/13 08:45:18;;;;;;;;;;;10.60;97.90;;;;;;5095527;28;19950;-78
2021/03/13 08:47:48;;;;;;;;;;;10.60;97.70;;;;;;5094782;28;20369;-79
2021/03/13 08:50:33;;;;;;;;;;;10.50;98.10;;;;;;5088965;28;20429;-79
2021/03/13 08:53:19;;;;;;;;;;;10.50;98.00;;;;;;5095171;28;20068;-80
2021/03/13 08:55:44;;;;;;;;;;;10.40;98.20;;;;;;5113472;28;20006;-79
2021/03/13 08:58:30;;;;;;;;;;;10.30;97.80;;;;;;5113965;28;20011;-79
2021/03/13 09:00:55;;;;;;;;;;;10.20;98.00;;;;;;5101264;28;19930;-78
2021/03/13 09:03:21;;;;;;;;;;;10.20;97.80;;;;;;5084828;28;20374;-79
2021/03/13 09:05:46;;;;;;;;;;;10.20;97.50;;;;;;5093097;28;20015;-78
2021/03/13 09:08:17;;;;;;;;;;;10.10;97.60;;;;;;5093698;28;19908;-79
2021/03/13 09:10:43;;;;;;;;;;;10.10;97.60;;;;;;5094255;28;20006;-79
2021/03/13 09:13:18;;;;;;;;;;;10.30;97.80;;;;;;5093872;28;20404;-79
2021/03/13 09:15:43;;;;;;;;;;;10.40;97.30;;;;;;5086391;28;19912;-79
2021/03/13 09:18:13;;;;;;;;;;;10.40;97.40;;;;;;5094013;28;19912;-79
2021/03/13 09:20:40;;;;;;;;;;;10.30;96.70;;;;;;5089296;28;19908;-79
2021/03/13 09:23:05;;;;;;;;;;;10.10;97.20;;;;;;5090913;28;20008;-79
2021/03/13 09:25:33;;;;;;;;;;;10.00;97.20;;;;;;5093206;28;19908;-80
2021/03/13 09:27:59;;;;;;;;;;;9.90;97.90;;;;;;5095413;28;19912;-79
2021/03/13 09:30:27;;;;;;;;;;;9.90;98.30;;;;;;5093486;28;20369;-79
2021/03/13 09:32:53;;;;;;;;;;;9.90;98.40;;;;;;5084899;28;19912;-79
2021/03/13 09:35:21;;;;;;;;;;;10.00;97.50;;;;;;5096883;28;19966;-79
2021/03/13 09:37:46;;;;;;;;;;;9.90;97.70;;;;;;5097456;28;19978;-79
2021/03/13 09:40:18;;;;;;;;;;;9.80;97.70;;;;;;5097079;28;20372;-79
2021/03/13 09:42:44;;;;;;;;;;;9.70;98.00;;;;;;5097664;28;20121;-80
2021/03/13 09:45:11;;;;;;;;;;;9.70;98.30;;;;;;5097833;28;20361;-80
2021/03/13 09:47:40;;;;;;;;;;;9.70;98.20;;;;;;5098456;28;19908;-78
2021/03/13 09:50:07;;;;;;;;;;;9.80;98.30;;;;;;5098745;28;19909;-79
2021/03/13 09:52:34;;;;;;;;;;;9.80;98.40;;;;;;5097121;28;19913;-79
2021/03/13 09:55:02;;;;;;;;;;;9.90;98.50;;;;;;5098725;28;20423;-79
2021/03/13 09:57:28;;;;;;;;;;;9.90;98.90;;;;;;5096992;28;19955;-79
2021/03/13 09:59:54;;;;;;;;;;;9.90;98.50;;;;;;5097037;28;19912;-79
2021/03/13 10:02:21;;;;;;;;;;;9.90;98.50;;;;;;5089610;28;19984;-79
2021/03/13 10:04:47;;;;;;;;;;;9.80;98.30;;;;;;5098565;28;20418;-80
2021/03/13 10:07:13;;;;;;;;;;;9.80;98.70;;;;;;5096891;28;19972;-77
2021/03/13 10:10:05;;;;;;;;;;;9.80;98.60;;;;;;5096880;28;19946;-77
2021/03/13 10:12:35;;;;;;;;;;;9.80;98.40;;;;;;5094594;28;19994;-79
2021/03/13 10:15:33;;;;;;;;;;;9.80;99.00;;;;;;5095897;28;20308;-79
2021/03/13 10:18:03;;;;;;;;;;;9.80;99.00;;;;;;5073618;28;19955;-80
2021/03/13 10:20:30;;;;;;;;;;;9.80;98.80;;;;;;5097682;28;19929;-80
2021/03/13 10:23:01;;;;;;;;;;;9.80;99.00;;;;;;5096485;28;19908;-79
2021/03/13 10:25:27;;;;;;;;;;;9.80;99.00;;;;;;5095845;28;19981;-79
2021/03/13 10:27:52;;;;;;;;;;;9.80;99.20;;;;;;5097693;28;20063;-79
2021/03/13 10:30:25;;;;;;;;;;;9.80;98.50;;;;;;5097509;28;19915;-79
2021/03/13 10:32:50;;;;;;;;;;;9.80;98.80;;;;;;5097129;28;19912;-79
2021/03/13 10:35:20;;;;;;;;;;;9.80;98.50;;;;;;5090774;28;19917;-79
2021/03/13 10:37:47;;;;;;;;;;;9.70;98.60;;;;;;5083681;28;19948;-78
2021/03/13 10:40:28;;;;;;;;;;;9.70;98.70;;;;;;5095952;28;19912;-79
2021/03/13 10:43:09;;;;;;;;;;;9.80;98.90;;;;;;5097504;28;19972;-78
2021/03/13 10:45:34;;;;;;;;;;;9.80;98.80;;;;;;5096487;28;19962;-77
2021/03/13 10:48:04;;;;;;;;;;;9.80;98.40;;;;;;5097243;28;19912;-79
2021/03/13 10:50:29;;;;;;;;;;;9.80;98.30;;;;;;5095380;28;19915;-79
2021/03/13 10:52:55;;;;;;;;;;;9.90;98.40;;;;;;5095672;28;19912;-79
2021/03/13 10:55:36;;;;;;;;;;;9.90;98.20;;;;;;5095104;28;19908;-79
2021/03/13 10:58:02;;;;;;;;;;;9.90;98.20;;;;;;5097075;28;19995;-79
2021/03/13 11:00:27;;;;;;;;;;;10.00;97.80;;;;;;5095406;28;20442;-79
2021/03/13 11:02:53;;;;;;;;;;;10.00;97.30;;;;;;5086675;28;19936;-79
2021/03/13 11:05:18;;;;;;;;;;;10.00;97.30;;;;;;5092971;28;19943;-78
2021/03/13 11:07:44;;;;;;;;;;;10.00;97.40;;;;;;5096121;28;19908;-79
2021/03/13 11:10:10;;;;;;;;;;;10.00;97.20;;;;;;5090910;28;20113;-79
2021/03/13 11:12:35;;;;;;;;;;;10.00;97.40;;;;;;5085940;28;19920;-79
2021/03/13 11:15:01;;;;;;;;;;;10.10;97.20;;;;;;5082458;28;19950;-78
2021/03/13 11:17:26;;;;;;;;;;;10.10;97.10;;;;;;5094308;28;20347;-79
2021/03/13 11:19:52;;;;;;;;;;;10.00;97.40;;;;;;5092474;28;20083;-79
2021/03/13 11:22:17;;;;;;;;;;;10.10;97.60;;;;;;5094794;28;20470;-79
2021/03/13 11:24:43;;;;;;;;;;;10.10;97.20;;;;;;5095569;28;19957;-76
2021/03/13 11:27:08;;;;;;;;;;;10.20;97.00;;;;;;5096501;28;19908;-79
2021/03/13 11:29:34;;;;;;;;;;;10.20;97.10;;;;;;5095088;28;19916;-79
2021/03/13 11:31:59;;;;;;;;;;;10.20;96.70;;;;;;5096131;28;20000;-79
2021/03/13 11:34:25;;;;;;;;;;;10.20;96.80;;;;;;5095878;28;19926;-77
2021/03/13 11:36:51;;;;;;;;;;;10.20;96.80;;;;;;5093833;28;19915;-79
2021/03/13 11:39:16;;;;;;;;;;;10.20;96.60;;;;;;5094424;28;19908;-79
2021/03/13 11:41:42;;;;;;;;;;;10.20;96.70;;;;;;5094502;28;19930;-79
2021/03/13 11:44:08;;;;;;;;;;;10.20;96.50;;;;;;5095963;28;19915;-78
2021/03/13 11:46:34;;;;;;;;;;;10.30;96.60;;;;;;5095339;28;19919;-79
2021/03/13 11:48:59;;;;;;;;;;;10.30;96.40;;;;;;5093825;28;19975;-77
2021/03/13 11:51:25;;;;;;;;;;;10.40;96.50;;;;;;5094207;28;19920;-79
2021/03/13 11:53:50;;;;;;;;;;;10.40;96.40;;;;;;5095240;28;19916;-79
2021/03/13 11:56:15;;;;;;;;;;;10.50;96.70;;;;;;5093480;28;19912;-77
2021/03/13 11:58:41;;;;;;;;;;;10.50;96.30;;;;;;5095442;28;19915;-79
2021/03/13 12:01:06;;;;;;;;;;;10.40;96.40;;;;;;5093879;28;19908;-79
2021/03/13 12:03:32;;;;;;;;;;;10.40;96.40;;;;;;5086128;28;20022;-78
2021/03/13 12:05:57;;;;;;;;;;;10.40;96.10;;;;;;5107813;28;19907;-78
2021/03/13 12:08:23;;;;;;;;;;;10.30;96.40;;;;;;5104518;28;19920;-81
2021/03/13 12:10:48;;;;;;;;;;;10.20;96.40;;;;;;5091210;28;19912;-78
2021/03/13 12:13:14;;;;;;;;;;;10.10;96.60;;;;;;5095603;28;19912;-81
2021/03/13 12:15:39;;;;;;;;;;;10.10;97.20;;;;;;5091229;28;19912;-76
2021/03/13 12:18:05;;;;;;;;;;;10.00;97.70;;;;;;5092442;28;19916;-79
2021/03/13 12:20:30;;;;;;;;;;;10.00;98.20;;;;;;5091357;28;20006;-79
2021/03/13 12:22:56;;;;;;;;;;;9.90;99.00;;;;;;5090105;28;19930;-77
2021/03/13 12:25:21;;;;;;;;;;;9.90;98.90;;;;;;5088184;28;19913;-79
2021/03/13 12:27:47;;;;;;;;;;;9.80;99.40;;;;;;5095207;28;20371;-79
2021/03/13 12:30:14;;;;;;;;;;;9.80;99.80;;;;;;5094130;28;19961;-78
2021/03/13 12:32:41;;;;;;;;;;;9.70;99.90;;;;;;5083756;28;19920;-79
2021/03/13 12:35:08;;;;;;;;;;;9.70;99.90;;;;;;5086871;28;19999;-79
2021/03/13 12:37:35;;;;;;;;;;;9.60;99.90;;;;;;5083771;28;19912;-79
2021/03/13 12:40:01;;;;;;;;;;;9.60;99.90;;;;;;5094496;28;19912;-77
2021/03/13 12:42:26;;;;;;;;;;;9.70;99.90;;;;;;5095801;28;19908;-78
2021/03/13 12:44:52;;;;;;;;;;;9.70;99.90;;;;;;5096140;28;20529;-79
2021/03/13 12:47:18;;;;;;;;;;;9.80;99.90;;;;;;5092891;28;19964;-79
2021/03/13 12:49:43;;;;;;;;;;;9.90;99.90;;;;;;5093212;28;19922;-79
2021/03/13 12:52:09;;;;;;;;;;;9.80;99.90;;;;;;5095333;28;20277;-78
2021/03/13 12:54:35;;;;;;;;;;;9.80;99.90;;;;;;5091826;28;20047;-77
2021/03/13 12:57:00;;;;;;;;;;;9.80;99.90;;;;;;5094605;28;19911;-78
2021/03/13 12:59:25;;;;;;;;;;;9.80;99.90;;;;;;5093842;28;20281;-78
2021/03/13 13:01:51;;;;;;;;;;;9.80;99.90;;;;;;5085483;28;19923;-76
2021/03/13 13:04:17;;;;;;;;;;;9.80;99.90;;;;;;5088888;28;19912;-78
2021/03/13 13:06:43;;;;;;;;;;;9.80;99.90;;;;;;5093752;28;20527;-79
2021/03/13 13:09:08;;;;;;;;;;;9.50;99.90;;;;;;5087646;28;19971;-79
2021/03/13 13:11:34;;;;;;;;;;;9.30;99.90;;;;;;5093696;28;19943;-79
2021/03/13 13:13:59;;;;;;;;;;;9.10;99.90;;;;;;5091229;28;19974;-78
2021/03/13 13:16:25;;;;;;;;;;;8.90;99.90;;;;;;5091699;28;19912;-79
2021/03/13 13:18:50;;;;;;;;;;;8.80;99.90;;;;;;5089318;28;19908;-78
2021/03/13 13:21:16;;;;;;;;;;;8.70;99.90;;;;;;5094528;28;19913;-79
2021/03/13 13:23:42;;;;;;;;;;;8.60;99.90;;;;;;5089103;28;19908;-78
2021/03/13 13:26:07;;;;;;;;;;;8.30;99.90;;;;;;5093121;28;19916;-77
2021/03/13 13:28:33;;;;;;;;;;;7.30;99.90;;;;;;5090798;28;19962;-76
2021/03/13 13:30:59;;;;;;;;;;;6.20;99.90;;;;;;5091205;28;19908;-75
2021/03/13 13:33:24;;;;;;;;;;;5.40;99.90;;;;;;5088937;28;19916;-75
2021/03/13 13:35:50;;;;;;;;;;;5.00;99.90;;;;;;5090924;28;20373;-76
2021/03/13 13:38:16;;;;;;;;;;;4.70;99.90;;;;;;5090307;28;20290;-76
2021/03/13 13:40:43;;;;;;;;;;;4.50;99.90;;;;;;5090828;28;19908;-76
2021/03/13 13:43:08;;;;;;;;;;;4.40;99.90;;;;;;5084836;28;19919;-76
2021/03/13 13:45:34;;;;;;;;;;;4.40;99.90;;;;;;5090505;28;19916;-75
2021/03/13 13:48:00;;;;;;;;;;;4.40;99.90;;;;;;5089491;28;19999;-76
2021/03/13 13:50:28;;;;;;;;;;;4.50;99.90;;;;;;5091125;28;19908;-76
2021/03/13 13:52:54;;;;;;;;;;;4.60;99.90;;;;;;5089576;28;20393;-76
2021/03/13 13:55:19;;;;;;;;;;;4.60;99.90;;;;;;5086704;28;19916;-75
2021/03/13 13:57:45;;;;;;;;;;;4.60;99.90;;;;;;5084319;28;19954;-76
2021/03/13 14:00:12;;;;;;;;;;;4.60;99.90;;;;;;5089477;28;19917;-75
2021/03/13 14:02:38;;;;;;;;;;;4.70;99.90;;;;;;5081895;28;20323;-76
2021/03/13 14:05:04;;;;;;;;;;;4.70;99.90;;;;;;5089534;28;19912;-76
2021/03/13 14:07:29;;;;;;;;;;;4.80;99.90;;;;;;5089458;28;19940;-76
2021/03/13 14:09:55;;;;;;;;;;;4.90;99.90;;;;;;5085180;28;19955;-76
2021/03/13 14:12:21;;;;;;;;;;;5.00;99.90;;;;;;5089141;28;19951;-76
2021/03/13 14:14:46;;;;;;;;;;;5.10;99.90;;;;;;5085304;28;19920;-76
2021/03/13 14:17:11;;;;;;;;;;;5.20;99.90;;;;;;5086364;28;20326;-76
2021/03/13 14:19:37;;;;;;;;;;;5.30;99.90;;;;;;5088176;28;19916;-76
2021/03/13 14:22:03;;;;;;;;;;;5.40;99.90;;;;;;5088849;28;19908;-76
2021/03/13 14:24:28;;;;;;;;;;;5.50;99.90;;;;;;5093475;28;19935;-76
2021/03/13 14:26:53;;;;;;;;;;;5.60;99.90;;;;;;5092228;28;19913;-76
2021/03/13 14:29:21;;;;;;;;;;;5.60;99.90;;;;;;5093853;28;20361;-75